sensor_id;sensor_type;location;lat;lon;timestamp;P1;durP1;ratioP1;P2;durP2;ratioP2
8317;SDS011;4196;48.926;8.964;2023-03-16T00:00:46;15.93;;;9.47;;
8317;SDS011;4196;48.926;8.964;2023-03-16T00:03:33;17.50;;;9.70;;
8317;SDS011;4196;48.926;8.964;2023-03-16T00:06:20;15.27;;;9.30;;
8317;SDS011;4196;48.926;8.964;2023-03-16T00:09:09;15.27;;;9.27;;
8317;SDS011;4196;48.926;8.964;2023-03-16T00:11:56;16.90;;;9.23;;
8317;SDS011;4196;48.926;8.964;2023-03-16T00:14:44;16.13;;;9.33;;
8317;SDS011;4196;48.926;8.964;2023-03-16T00:17:33;17.93;;;10.60;;
8317;SDS011;4196;48.926;8.964;2023-03-16T00:20:19;19.77;;;9.70;;
8317;SDS011;4196;48.926;8.964;2023-03-16T00:23:06;18.27;;;9.13;;
8317;SDS011;4196;48.926;8.964;2023-03-16T00:25:53;15.60;;;8.93;;
8317;SDS011;4196;48.926;8.964;2023-03-16T00:28:44;20.50;;;9.37;;
8317;SDS011;4196;48.926;8.964;2023-03-16T00:31:30;22.37;;;10.80;;
8317;SDS011;4196;48.926;8.964;2023-03-16T00:34:19;33.47;;;13.70;;
8317;SDS011;4196;48.926;8.964;2023-03-16T00:37:05;20.57;;;11.63;;
8317;SDS011;4196;48.926;8.964;2023-03-16T00:39:52;26.27;;;11.73;;
8317;SDS011;4196;48.926;8.964;2023-03-16T00:42:41;27.37;;;13.77;;
8317;SDS011;4196;48.926;8.964;2023-03-16T00:45:28;19.80;;;11.03;;
8317;SDS011;4196;48.926;8.964;2023-03-16T00:48:15;22.23;;;11.53;;
8317;SDS011;4196;48.926;8.964;2023-03-16T00:51:04;56.17;;;11.17;;
8317;SDS011;4196;48.926;8.964;2023-03-16T00:53:52;21.17;;;11.13;;
8317;SDS011;4196;48.926;8.964;2023-03-16T00:56:39;35.63;;;11.47;;
8317;SDS011;4196;48.926;8.964;2023-03-16T00:59:28;29.13;;;11.97;;
8317;SDS011;4196;48.926;8.964;2023-03-16T01:02:16;23.23;;;13.70;;
8317;SDS011;4196;48.926;8.964;2023-03-16T01:05:05;21.03;;;11.43;;
8317;SDS011;4196;48.926;8.964;2023-03-16T01:07:51;76.00;;;13.87;;
8317;SDS011;4196;48.926;8.964;2023-03-16T01:10:38;22.60;;;10.47;;
8317;SDS011;4196;48.926;8.964;2023-03-16T01:13:25;19.13;;;10.97;;
8317;SDS011;4196;48.926;8.964;2023-03-16T01:16:12;17.87;;;10.30;;
8317;SDS011;4196;48.926;8.964;2023-03-16T01:18:58;28.87;;;12.03;;
8317;SDS011;4196;48.926;8.964;2023-03-16T01:21:46;23.20;;;10.90;;
8317;SDS011;4196;48.926;8.964;2023-03-16T01:24:33;24.37;;;10.60;;
8317;SDS011;4196;48.926;8.964;2023-03-16T01:27:20;25.33;;;11.00;;
8317;SDS011;4196;48.926;8.964;2023-03-16T01:30:07;28.80;;;10.63;;
8317;SDS011;4196;48.926;8.964;2023-03-16T01:32:57;26.57;;;10.80;;
8317;SDS011;4196;48.926;8.964;2023-03-16T01:35:51;25.60;;;11.63;;
8317;SDS011;4196;48.926;8.964;2023-03-16T01:38:39;28.30;;;11.83;;
8317;SDS011;4196;48.926;8.964;2023-03-16T01:41:26;20.53;;;9.47;;
8317;SDS011;4196;48.926;8.964;2023-03-16T01:44:14;22.63;;;10.63;;
8317;SDS011;4196;48.926;8.964;2023-03-16T01:47:02;38.63;;;12.03;;
8317;SDS011;4196;48.926;8.964;2023-03-16T01:49:50;26.87;;;11.20;;
8317;SDS011;4196;48.926;8.964;2023-03-16T01:52:43;46.47;;;13.20;;
8317;SDS011;4196;48.926;8.964;2023-03-16T01:55:29;19.67;;;10.80;;
8317;SDS011;4196;48.926;8.964;2023-03-16T01:58:16;35.43;;;13.20;;
8317;SDS011;4196;48.926;8.964;2023-03-16T02:01:02;27.60;;;13.20;;
8317;SDS011;4196;48.926;8.964;2023-03-16T02:03:50;37.67;;;12.23;;
8317;SDS011;4196;48.926;8.964;2023-03-16T02:06:43;39.27;;;13.37;;
8317;SDS011;4196;48.926;8.964;2023-03-16T02:09:30;28.77;;;11.43;;
8317;SDS011;4196;48.926;8.964;2023-03-16T02:12:19;50.03;;;12.87;;
8317;SDS011;4196;48.926;8.964;2023-03-16T02:15:11;44.60;;;11.97;;
8317;SDS011;4196;48.926;8.964;2023-03-16T02:17:59;40.73;;;12.20;;
8317;SDS011;4196;48.926;8.964;2023-03-16T02:20:48;19.73;;;9.63;;
8317;SDS011;4196;48.926;8.964;2023-03-16T02:23:42;70.20;;;12.67;;
8317;SDS011;4196;48.926;8.964;2023-03-16T02:33:21;20.43;;;10.00;;
8317;SDS011;4196;48.926;8.964;2023-03-16T02:36:09;15.87;;;8.70;;
8317;SDS011;4196;48.926;8.964;2023-03-16T02:38:56;18.40;;;10.87;;
8317;SDS011;4196;48.926;8.964;2023-03-16T02:41:44;20.87;;;10.03;;
8317;SDS011;4196;48.926;8.964;2023-03-16T02:44:33;36.80;;;10.90;;
8317;SDS011;4196;48.926;8.964;2023-03-16T02:47:42;21.90;;;9.83;;
8317;SDS011;4196;48.926;8.964;2023-03-16T02:50:29;27.70;;;9.50;;
8317;SDS011;4196;48.926;8.964;2023-03-16T02:53:16;21.43;;;9.73;;
8317;SDS011;4196;48.926;8.964;2023-03-16T02:56:02;20.20;;;9.33;;
8317;SDS011;4196;48.926;8.964;2023-03-16T02:58:52;22.43;;;9.53;;
8317;SDS011;4196;48.926;8.964;2023-03-16T03:01:40;28.27;;;11.37;;
8317;SDS011;4196;48.926;8.964;2023-03-16T03:04:28;71.40;;;12.87;;
8317;SDS011;4196;48.926;8.964;2023-03-16T03:07:14;19.13;;;10.40;;
8317;SDS011;4196;48.926;8.964;2023-03-16T03:10:14;20.83;;;11.33;;
8317;SDS011;4196;48.926;8.964;2023-03-16T03:13:00;22.97;;;12.37;;
8317;SDS011;4196;48.926;8.964;2023-03-16T03:15:47;23.07;;;10.83;;
8317;SDS011;4196;48.926;8.964;2023-03-16T03:18:33;18.70;;;10.53;;
8317;SDS011;4196;48.926;8.964;2023-03-16T03:21:20;20.30;;;10.53;;
8317;SDS011;4196;48.926;8.964;2023-03-16T03:24:07;21.10;;;10.27;;
8317;SDS011;4196;48.926;8.964;2023-03-16T03:26:55;16.93;;;9.30;;
8317;SDS011;4196;48.926;8.964;2023-03-16T03:29:42;15.43;;;7.93;;
8317;SDS011;4196;48.926;8.964;2023-03-16T03:32:29;16.87;;;9.60;;
8317;SDS011;4196;48.926;8.964;2023-03-16T03:35:16;23.27;;;8.80;;
8317;SDS011;4196;48.926;8.964;2023-03-16T03:38:02;28.67;;;10.17;;
8317;SDS011;4196;48.926;8.964;2023-03-16T03:40:50;19.23;;;9.40;;
8317;SDS011;4196;48.926;8.964;2023-03-16T03:43:37;18.13;;;10.33;;
8317;SDS011;4196;48.926;8.964;2023-03-16T03:46:26;15.33;;;9.53;;
8317;SDS011;4196;48.926;8.964;2023-03-16T03:49:13;24.77;;;12.40;;
8317;SDS011;4196;48.926;8.964;2023-03-16T03:52:00;18.73;;;9.50;;
8317;SDS011;4196;48.926;8.964;2023-03-16T03:54:50;18.47;;;9.40;;
8317;SDS011;4196;48.926;8.964;2023-03-16T03:57:36;17.27;;;10.67;;
8317;SDS011;4196;48.926;8.964;2023-03-16T04:00:23;16.53;;;10.00;;
8317;SDS011;4196;48.926;8.964;2023-03-16T04:03:10;19.53;;;11.17;;
8317;SDS011;4196;48.926;8.964;2023-03-16T04:06:02;23.53;;;11.30;;
8317;SDS011;4196;48.926;8.964;2023-03-16T04:08:49;24.63;;;12.07;;
8317;SDS011;4196;48.926;8.964;2023-03-16T04:11:40;17.07;;;11.03;;
8317;SDS011;4196;48.926;8.964;2023-03-16T04:14:27;20.43;;;10.47;;
8317;SDS011;4196;48.926;8.964;2023-03-16T04:17:14;18.03;;;11.47;;
8317;SDS011;4196;48.926;8.964;2023-03-16T04:20:01;19.73;;;11.27;;
8317;SDS011;4196;48.926;8.964;2023-03-16T04:22:51;21.27;;;11.17;;
8317;SDS011;4196;48.926;8.964;2023-03-16T04:25:43;16.23;;;10.13;;
8317;SDS011;4196;48.926;8.964;2023-03-16T04:28:32;17.63;;;9.73;;
8317;SDS011;4196;48.926;8.964;2023-03-16T04:31:19;18.07;;;9.50;;
8317;SDS011;4196;48.926;8.964;2023-03-16T04:34:06;18.87;;;9.77;;
8317;SDS011;4196;48.926;8.964;2023-03-16T04:36:53;18.70;;;9.17;;
8317;SDS011;4196;48.926;8.964;2023-03-16T04:39:39;16.20;;;10.10;;
8317;SDS011;4196;48.926;8.964;2023-03-16T04:42:27;17.90;;;8.60;;
8317;SDS011;4196;48.926;8.964;2023-03-16T04:45:14;14.90;;;8.87;;
8317;SDS011;4196;48.926;8.964;2023-03-16T04:48:03;20.07;;;10.17;;
8317;SDS011;4196;48.926;8.964;2023-03-16T04:50:50;15.10;;;9.50;;
8317;SDS011;4196;48.926;8.964;2023-03-16T04:53:37;17.00;;;10.07;;
8317;SDS011;4196;48.926;8.964;2023-03-16T04:56:33;16.73;;;8.73;;
8317;SDS011;4196;48.926;8.964;2023-03-16T04:59:23;21.43;;;10.40;;
8317;SDS011;4196;48.926;8.964;2023-03-16T05:02:18;19.20;;;10.73;;
8317;SDS011;4196;48.926;8.964;2023-03-16T05:05:07;17.37;;;9.77;;
8317;SDS011;4196;48.926;8.964;2023-03-16T05:07:56;17.40;;;10.33;;
8317;SDS011;4196;48.926;8.964;2023-03-16T05:10:45;18.13;;;9.57;;
8317;SDS011;4196;48.926;8.964;2023-03-16T05:13:33;16.10;;;9.50;;
8317;SDS011;4196;48.926;8.964;2023-03-16T05:16:20;14.50;;;9.13;;
8317;SDS011;4196;48.926;8.964;2023-03-16T05:19:07;19.90;;;10.07;;
8317;SDS011;4196;48.926;8.964;2023-03-16T05:21:54;21.63;;;10.47;;
8317;SDS011;4196;48.926;8.964;2023-03-16T05:24:42;19.83;;;10.10;;
8317;SDS011;4196;48.926;8.964;2023-03-16T05:27:28;20.00;;;11.53;;
8317;SDS011;4196;48.926;8.964;2023-03-16T05:30:16;19.17;;;10.10;;
8317;SDS011;4196;48.926;8.964;2023-03-16T05:33:04;18.97;;;9.70;;
8317;SDS011;4196;48.926;8.964;2023-03-16T05:35:52;19.27;;;10.77;;
8317;SDS011;4196;48.926;8.964;2023-03-16T05:38:38;18.80;;;10.87;;
8317;SDS011;4196;48.926;8.964;2023-03-16T05:41:28;20.63;;;11.77;;
8317;SDS011;4196;48.926;8.964;2023-03-16T05:44:22;18.70;;;11.43;;
8317;SDS011;4196;48.926;8.964;2023-03-16T05:47:26;22.77;;;10.90;;
8317;SDS011;4196;48.926;8.964;2023-03-16T05:50:16;19.90;;;11.17;;
8317;SDS011;4196;48.926;8.964;2023-03-16T05:53:03;22.90;;;11.47;;
8317;SDS011;4196;48.926;8.964;2023-03-16T05:55:50;21.43;;;10.73;;
8317;SDS011;4196;48.926;8.964;2023-03-16T05:58:38;20.17;;;11.00;;
8317;SDS011;4196;48.926;8.964;2023-03-16T06:01:27;20.80;;;10.97;;
8317;SDS011;4196;48.926;8.964;2023-03-16T06:04:13;21.30;;;11.00;;
8317;SDS011;4196;48.926;8.964;2023-03-16T06:07:00;21.77;;;11.90;;
8317;SDS011;4196;48.926;8.964;2023-03-16T06:09:48;21.43;;;10.27;;
8317;SDS011;4196;48.926;8.964;2023-03-16T06:12:35;22.23;;;12.07;;
8317;SDS011;4196;48.926;8.964;2023-03-16T06:15:22;25.33;;;11.27;;
8317;SDS011;4196;48.926;8.964;2023-03-16T06:18:13;24.20;;;12.40;;
8317;SDS011;4196;48.926;8.964;2023-03-16T06:21:03;25.77;;;12.93;;
8317;SDS011;4196;48.926;8.964;2023-03-16T06:23:51;21.90;;;12.10;;
8317;SDS011;4196;48.926;8.964;2023-03-16T06:26:39;21.30;;;11.90;;
8317;SDS011;4196;48.926;8.964;2023-03-16T06:29:29;29.03;;;13.70;;
8317;SDS011;4196;48.926;8.964;2023-03-16T06:32:16;27.03;;;12.20;;
8317;SDS011;4196;48.926;8.964;2023-03-16T06:35:03;20.97;;;11.80;;
8317;SDS011;4196;48.926;8.964;2023-03-16T06:37:52;22.13;;;12.37;;
8317;SDS011;4196;48.926;8.964;2023-03-16T06:40:54;22.33;;;12.27;;
8317;SDS011;4196;48.926;8.964;2023-03-16T06:43:42;23.33;;;12.47;;
8317;SDS011;4196;48.926;8.964;2023-03-16T06:46:29;22.43;;;11.33;;
8317;SDS011;4196;48.926;8.964;2023-03-16T06:49:19;22.27;;;12.87;;
8317;SDS011;4196;48.926;8.964;2023-03-16T06:52:07;25.27;;;13.03;;
8317;SDS011;4196;48.926;8.964;2023-03-16T06:54:55;27.37;;;12.97;;
8317;SDS011;4196;48.926;8.964;2023-03-16T06:57:45;19.47;;;11.90;;
8317;SDS011;4196;48.926;8.964;2023-03-16T07:00:31;25.27;;;12.80;;
8317;SDS011;4196;48.926;8.964;2023-03-16T07:03:19;20.07;;;12.47;;
8317;SDS011;4196;48.926;8.964;2023-03-16T07:06:12;19.13;;;11.77;;
8317;SDS011;4196;48.926;8.964;2023-03-16T07:09:00;32.27;;;12.97;;
8317;SDS011;4196;48.926;8.964;2023-03-16T07:11:48;28.70;;;13.30;;
8317;SDS011;4196;48.926;8.964;2023-03-16T07:14:35;23.17;;;11.77;;
8317;SDS011;4196;48.926;8.964;2023-03-16T07:17:22;20.47;;;11.63;;
8317;SDS011;4196;48.926;8.964;2023-03-16T07:20:09;23.27;;;12.27;;
8317;SDS011;4196;48.926;8.964;2023-03-16T07:22:58;25.63;;;12.00;;
8317;SDS011;4196;48.926;8.964;2023-03-16T07:25:44;25.60;;;13.33;;
8317;SDS011;4196;48.926;8.964;2023-03-16T07:28:33;30.27;;;14.47;;
8317;SDS011;4196;48.926;8.964;2023-03-16T07:31:22;23.13;;;12.03;;
8317;SDS011;4196;48.926;8.964;2023-03-16T07:34:10;26.50;;;13.53;;
8317;SDS011;4196;48.926;8.964;2023-03-16T07:37:01;22.80;;;13.27;;
8317;SDS011;4196;48.926;8.964;2023-03-16T07:39:50;29.00;;;14.17;;
8317;SDS011;4196;48.926;8.964;2023-03-16T07:42:38;24.80;;;12.93;;
8317;SDS011;4196;48.926;8.964;2023-03-16T07:45:32;23.97;;;14.00;;
8317;SDS011;4196;48.926;8.964;2023-03-16T07:48:19;28.50;;;13.27;;
8317;SDS011;4196;48.926;8.964;2023-03-16T07:51:13;28.87;;;12.90;;
8317;SDS011;4196;48.926;8.964;2023-03-16T07:54:04;23.77;;;13.63;;
8317;SDS011;4196;48.926;8.964;2023-03-16T07:56:53;26.23;;;13.33;;
8317;SDS011;4196;48.926;8.964;2023-03-16T07:59:47;20.40;;;11.20;;
8317;SDS011;4196;48.926;8.964;2023-03-16T08:02:36;23.53;;;12.23;;
8317;SDS011;4196;48.926;8.964;2023-03-16T08:05:23;20.23;;;11.73;;
8317;SDS011;4196;48.926;8.964;2023-03-16T08:08:17;21.17;;;11.47;;
8317;SDS011;4196;48.926;8.964;2023-03-16T08:11:04;26.43;;;12.17;;
8317;SDS011;4196;48.926;8.964;2023-03-16T08:14:02;19.87;;;11.07;;
8317;SDS011;4196;48.926;8.964;2023-03-16T08:17:10;21.90;;;12.20;;
8317;SDS011;4196;48.926;8.964;2023-03-16T08:19:58;19.13;;;10.43;;
8317;SDS011;4196;48.926;8.964;2023-03-16T08:22:45;20.27;;;10.20;;
8317;SDS011;4196;48.926;8.964;2023-03-16T08:25:34;22.03;;;11.10;;
8317;SDS011;4196;48.926;8.964;2023-03-16T08:28:26;19.83;;;10.80;;
8317;SDS011;4196;48.926;8.964;2023-03-16T08:31:14;16.03;;;8.80;;
8317;SDS011;4196;48.926;8.964;2023-03-16T08:34:10;14.67;;;8.33;;
8317;SDS011;4196;48.926;8.964;2023-03-16T08:37:01;17.80;;;10.63;;
8317;SDS011;4196;48.926;8.964;2023-03-16T08:39:47;14.47;;;8.10;;
8317;SDS011;4196;48.926;8.964;2023-03-16T08:42:36;15.23;;;8.50;;
8317;SDS011;4196;48.926;8.964;2023-03-16T08:45:28;14.03;;;8.10;;
8317;SDS011;4196;48.926;8.964;2023-03-16T08:48:14;13.17;;;7.30;;
8317;SDS011;4196;48.926;8.964;2023-03-16T08:51:03;15.33;;;8.20;;
8317;SDS011;4196;48.926;8.964;2023-03-16T08:53:50;14.90;;;9.83;;
8317;SDS011;4196;48.926;8.964;2023-03-16T08:56:37;14.80;;;8.07;;
8317;SDS011;4196;48.926;8.964;2023-03-16T08:59:24;13.50;;;6.80;;
8317;SDS011;4196;48.926;8.964;2023-03-16T09:02:15;12.47;;;7.47;;
8317;SDS011;4196;48.926;8.964;2023-03-16T09:05:02;10.77;;;6.43;;
8317;SDS011;4196;48.926;8.964;2023-03-16T09:07:48;13.10;;;6.90;;
8317;SDS011;4196;48.926;8.964;2023-03-16T09:10:34;15.83;;;6.53;;
8317;SDS011;4196;48.926;8.964;2023-03-16T09:13:21;11.77;;;7.33;;
8317;SDS011;4196;48.926;8.964;2023-03-16T09:16:07;12.63;;;7.80;;
8317;SDS011;4196;48.926;8.964;2023-03-16T09:18:55;8.60;;;6.10;;
8317;SDS011;4196;48.926;8.964;2023-03-16T09:21:42;10.57;;;6.37;;
8317;SDS011;4196;48.926;8.964;2023-03-16T09:24:32;7.40;;;4.63;;
8317;SDS011;4196;48.926;8.964;2023-03-16T09:27:19;9.77;;;6.33;;
8317;SDS011;4196;48.926;8.964;2023-03-16T09:30:06;9.97;;;5.70;;
8317;SDS011;4196;48.926;8.964;2023-03-16T09:32:53;9.07;;;4.70;;
8317;SDS011;4196;48.926;8.964;2023-03-16T09:35:40;7.50;;;4.40;;
8317;SDS011;4196;48.926;8.964;2023-03-16T09:38:27;6.77;;;4.93;;
8317;SDS011;4196;48.926;8.964;2023-03-16T09:41:31;5.57;;;4.10;;
8317;SDS011;4196;48.926;8.964;2023-03-16T09:47:51;5.00;;;3.50;;
8317;SDS011;4196;48.926;8.964;2023-03-16T09:50:43;7.60;;;4.47;;
8317;SDS011;4196;48.926;8.964;2023-03-16T09:53:35;6.77;;;4.53;;
8317;SDS011;4196;48.926;8.964;2023-03-16T09:56:36;7.83;;;4.23;;
8317;SDS011;4196;48.926;8.964;2023-03-16T09:59:27;6.37;;;3.10;;
8317;SDS011;4196;48.926;8.964;2023-03-16T10:05:06;6.37;;;3.67;;
8317;SDS011;4196;48.926;8.964;2023-03-16T10:08:00;7.90;;;4.07;;
8317;SDS011;4196;48.926;8.964;2023-03-16T10:10:56;6.57;;;4.27;;
8317;SDS011;4196;48.926;8.964;2023-03-16T10:13:46;6.53;;;3.43;;
8317;SDS011;4196;48.926;8.964;2023-03-16T10:19:31;4.77;;;3.33;;
8317;SDS011;4196;48.926;8.964;2023-03-16T10:22:29;5.13;;;2.97;;
8317;SDS011;4196;48.926;8.964;2023-03-16T10:28:17;4.33;;;3.00;;
8317;SDS011;4196;48.926;8.964;2023-03-16T10:31:08;4.77;;;2.90;;
8317;SDS011;4196;48.926;8.964;2023-03-16T10:33:58;3.30;;;2.97;;
8317;SDS011;4196;48.926;8.964;2023-03-16T10:36:50;6.17;;;3.43;;
8317;SDS011;4196;48.926;8.964;2023-03-16T10:39:39;4.73;;;3.20;;
8317;SDS011;4196;48.926;8.964;2023-03-16T10:42:28;4.13;;;2.77;;
8317;SDS011;4196;48.926;8.964;2023-03-16T10:45:19;5.90;;;3.07;;
8317;SDS011;4196;48.926;8.964;2023-03-16T10:48:16;3.90;;;3.00;;
8317;SDS011;4196;48.926;8.964;2023-03-16T10:51:06;3.63;;;2.47;;
8317;SDS011;4196;48.926;8.964;2023-03-16T10:54:01;4.90;;;2.73;;
8317;SDS011;4196;48.926;8.964;2023-03-16T10:56:56;3.90;;;3.10;;
8317;SDS011;4196;48.926;8.964;2023-03-16T10:59:46;4.00;;;2.57;;
8317;SDS011;4196;48.926;8.964;2023-03-16T11:02:34;3.67;;;2.90;;
8317;SDS011;4196;48.926;8.964;2023-03-16T11:08:16;4.47;;;2.40;;
8317;SDS011;4196;48.926;8.964;2023-03-16T11:11:09;4.13;;;2.47;;
8317;SDS011;4196;48.926;8.964;2023-03-16T11:14:03;4.47;;;2.87;;
8317;SDS011;4196;48.926;8.964;2023-03-16T11:16:59;3.37;;;2.27;;
8317;SDS011;4196;48.926;8.964;2023-03-16T11:19:52;4.70;;;2.50;;
8317;SDS011;4196;48.926;8.964;2023-03-16T11:22:42;3.33;;;2.30;;
8317;SDS011;4196;48.926;8.964;2023-03-16T11:25:32;4.13;;;2.60;;
8317;SDS011;4196;48.926;8.964;2023-03-16T11:28:27;3.30;;;2.63;;
8317;SDS011;4196;48.926;8.964;2023-03-16T11:34:28;5.13;;;2.73;;
8317;SDS011;4196;48.926;8.964;2023-03-16T11:37:24;4.73;;;3.10;;
8317;SDS011;4196;48.926;8.964;2023-03-16T11:46:35;3.67;;;2.90;;
8317;SDS011;4196;48.926;8.964;2023-03-16T11:49:45;3.93;;;2.47;;
8317;SDS011;4196;48.926;8.964;2023-03-16T11:56:02;4.17;;;2.47;;
8317;SDS011;4196;48.926;8.964;2023-03-16T12:05:53;2.33;;;2.13;;
8317;SDS011;4196;48.926;8.964;2023-03-16T12:09:02;4.73;;;2.87;;
8317;SDS011;4196;48.926;8.964;2023-03-16T12:12:04;6.80;;;2.47;;
8317;SDS011;4196;48.926;8.964;2023-03-16T12:18:04;3.50;;;2.40;;
8317;SDS011;4196;48.926;8.964;2023-03-16T12:21:01;3.37;;;2.50;;
8317;SDS011;4196;48.926;8.964;2023-03-16T12:23:52;4.00;;;2.77;;
8317;SDS011;4196;48.926;8.964;2023-03-16T12:26:41;5.03;;;3.00;;
8317;SDS011;4196;48.926;8.964;2023-03-16T12:29:32;5.73;;;2.30;;
8317;SDS011;4196;48.926;8.964;2023-03-16T12:32:39;6.40;;;2.83;;
8317;SDS011;4196;48.926;8.964;2023-03-16T12:39:09;4.43;;;2.30;;
8317;SDS011;4196;48.926;8.964;2023-03-16T12:42:20;3.60;;;2.67;;
8317;SDS011;4196;48.926;8.964;2023-03-16T12:51:12;3.67;;;2.27;;
8317;SDS011;4196;48.926;8.964;2023-03-16T12:53:58;5.43;;;2.63;;
8317;SDS011;4196;48.926;8.964;2023-03-16T12:56:46;2.83;;;2.47;;
8317;SDS011;4196;48.926;8.964;2023-03-16T12:59:35;3.47;;;2.47;;
8317;SDS011;4196;48.926;8.964;2023-03-16T13:02:29;3.17;;;2.20;;
8317;SDS011;4196;48.926;8.964;2023-03-16T13:05:29;2.60;;;2.00;;
8317;SDS011;4196;48.926;8.964;2023-03-16T13:08:19;2.60;;;1.83;;
8317;SDS011;4196;48.926;8.964;2023-03-16T13:11:11;4.57;;;2.23;;
8317;SDS011;4196;48.926;8.964;2023-03-16T13:16:46;3.57;;;2.17;;
8317;SDS011;4196;48.926;8.964;2023-03-16T13:19:34;3.73;;;2.20;;
8317;SDS011;4196;48.926;8.964;2023-03-16T13:22:43;3.73;;;2.10;;
8317;SDS011;4196;48.926;8.964;2023-03-16T13:25:42;3.97;;;1.70;;
8317;SDS011;4196;48.926;8.964;2023-03-16T13:28:44;2.40;;;1.90;;
8317;SDS011;4196;48.926;8.964;2023-03-16T13:31:39;4.97;;;2.70;;
8317;SDS011;4196;48.926;8.964;2023-03-16T13:34:30;2.17;;;1.97;;
8317;SDS011;4196;48.926;8.964;2023-03-16T13:37:33;4.50;;;2.10;;
8317;SDS011;4196;48.926;8.964;2023-03-16T13:40:20;3.60;;;1.97;;
8317;SDS011;4196;48.926;8.964;2023-03-16T13:43:16;4.93;;;1.97;;
8317;SDS011;4196;48.926;8.964;2023-03-16T13:46:17;4.13;;;2.13;;
8317;SDS011;4196;48.926;8.964;2023-03-16T13:49:10;5.23;;;1.90;;
8317;SDS011;4196;48.926;8.964;2023-03-16T13:51:57;2.83;;;2.10;;
8317;SDS011;4196;48.926;8.964;2023-03-16T13:54:43;3.93;;;1.70;;
8317;SDS011;4196;48.926;8.964;2023-03-16T13:57:31;4.07;;;2.03;;
8317;SDS011;4196;48.926;8.964;2023-03-16T14:00:23;2.10;;;1.90;;
8317;SDS011;4196;48.926;8.964;2023-03-16T14:03:13;6.03;;;2.20;;
8317;SDS011;4196;48.926;8.964;2023-03-16T14:06:03;2.63;;;1.83;;
8317;SDS011;4196;48.926;8.964;2023-03-16T14:08:51;4.03;;;2.00;;
8317;SDS011;4196;48.926;8.964;2023-03-16T14:11:41;2.67;;;2.10;;
8317;SDS011;4196;48.926;8.964;2023-03-16T14:14:30;2.83;;;2.10;;
8317;SDS011;4196;48.926;8.964;2023-03-16T14:17:22;3.50;;;2.00;;
8317;SDS011;4196;48.926;8.964;2023-03-16T14:20:09;6.57;;;2.30;;
8317;SDS011;4196;48.926;8.964;2023-03-16T14:23:04;4.80;;;2.70;;
8317;SDS011;4196;48.926;8.964;2023-03-16T14:25:51;5.70;;;2.03;;
8317;SDS011;4196;48.926;8.964;2023-03-16T14:28:39;3.40;;;2.30;;
8317;SDS011;4196;48.926;8.964;2023-03-16T14:31:37;3.53;;;2.03;;
8317;SDS011;4196;48.926;8.964;2023-03-16T14:34:30;5.80;;;2.13;;
8317;SDS011;4196;48.926;8.964;2023-03-16T14:37:21;2.67;;;2.10;;
8317;SDS011;4196;48.926;8.964;2023-03-16T14:40:41;3.43;;;2.10;;
8317;SDS011;4196;48.926;8.964;2023-03-16T14:43:34;6.07;;;2.27;;
8317;SDS011;4196;48.926;8.964;2023-03-16T14:46:36;2.00;;;1.70;;
8317;SDS011;4196;48.926;8.964;2023-03-16T14:49:31;4.00;;;2.20;;
8317;SDS011;4196;48.926;8.964;2023-03-16T14:52:26;3.77;;;2.23;;
8317;SDS011;4196;48.926;8.964;2023-03-16T14:55:17;8.10;;;3.50;;
8317;SDS011;4196;48.926;8.964;2023-03-16T14:58:05;2.20;;;1.70;;
8317;SDS011;4196;48.926;8.964;2023-03-16T15:00:52;3.40;;;1.97;;
8317;SDS011;4196;48.926;8.964;2023-03-16T15:03:39;2.57;;;1.80;;
8317;SDS011;4196;48.926;8.964;2023-03-16T15:06:27;3.43;;;2.00;;
8317;SDS011;4196;48.926;8.964;2023-03-16T15:09:30;4.23;;;1.90;;
8317;SDS011;4196;48.926;8.964;2023-03-16T15:12:21;1.70;;;1.60;;
8317;SDS011;4196;48.926;8.964;2023-03-16T15:15:13;4.53;;;1.77;;
8317;SDS011;4196;48.926;8.964;2023-03-16T15:18:01;3.80;;;2.13;;
8317;SDS011;4196;48.926;8.964;2023-03-16T15:20:47;3.27;;;2.13;;
8317;SDS011;4196;48.926;8.964;2023-03-16T15:23:37;4.07;;;2.10;;
8317;SDS011;4196;48.926;8.964;2023-03-16T15:26:25;4.40;;;2.33;;
8317;SDS011;4196;48.926;8.964;2023-03-16T15:29:13;2.23;;;1.70;;
8317;SDS011;4196;48.926;8.964;2023-03-16T15:31:59;3.27;;;2.00;;
8317;SDS011;4196;48.926;8.964;2023-03-16T15:34:46;1.93;;;1.70;;
8317;SDS011;4196;48.926;8.964;2023-03-16T15:37:32;2.40;;;2.20;;
8317;SDS011;4196;48.926;8.964;2023-03-16T15:40:23;3.00;;;1.87;;
8317;SDS011;4196;48.926;8.964;2023-03-16T15:43:13;3.77;;;1.83;;
8317;SDS011;4196;48.926;8.964;2023-03-16T15:46:04;2.60;;;1.70;;
8317;SDS011;4196;48.926;8.964;2023-03-16T15:48:52;3.47;;;2.10;;
8317;SDS011;4196;48.926;8.964;2023-03-16T15:51:38;2.87;;;2.03;;
8317;SDS011;4196;48.926;8.964;2023-03-16T15:54:24;2.83;;;2.20;;
8317;SDS011;4196;48.926;8.964;2023-03-16T15:57:11;4.70;;;2.00;;
8317;SDS011;4196;48.926;8.964;2023-03-16T15:59:58;2.63;;;1.77;;
8317;SDS011;4196;48.926;8.964;2023-03-16T16:02:45;3.97;;;2.40;;
8317;SDS011;4196;48.926;8.964;2023-03-16T16:05:31;3.40;;;2.30;;
8317;SDS011;4196;48.926;8.964;2023-03-16T16:08:18;3.97;;;1.67;;
8317;SDS011;4196;48.926;8.964;2023-03-16T16:11:16;4.40;;;3.13;;
8317;SDS011;4196;48.926;8.964;2023-03-16T16:14:08;5.47;;;2.00;;
8317;SDS011;4196;48.926;8.964;2023-03-16T16:16:59;3.13;;;1.93;;
8317;SDS011;4196;48.926;8.964;2023-03-16T16:19:46;2.57;;;1.80;;
8317;SDS011;4196;48.926;8.964;2023-03-16T16:22:33;5.53;;;2.10;;
8317;SDS011;4196;48.926;8.964;2023-03-16T16:25:22;2.90;;;2.10;;
8317;SDS011;4196;48.926;8.964;2023-03-16T16:28:14;3.53;;;3.10;;
8317;SDS011;4196;48.926;8.964;2023-03-16T16:31:07;6.30;;;2.73;;
8317;SDS011;4196;48.926;8.964;2023-03-16T16:33:57;2.97;;;1.77;;
8317;SDS011;4196;48.926;8.964;2023-03-16T16:36:44;3.33;;;2.13;;
8317;SDS011;4196;48.926;8.964;2023-03-16T16:39:30;4.50;;;2.47;;
8317;SDS011;4196;48.926;8.964;2023-03-16T16:42:17;3.97;;;2.73;;
8317;SDS011;4196;48.926;8.964;2023-03-16T16:45:03;6.17;;;2.90;;
8317;SDS011;4196;48.926;8.964;2023-03-16T16:47:52;3.30;;;2.97;;
8317;SDS011;4196;48.926;8.964;2023-03-16T16:50:40;11.33;;;2.80;;
8317;SDS011;4196;48.926;8.964;2023-03-16T16:53:26;5.27;;;2.97;;
8317;SDS011;4196;48.926;8.964;2023-03-16T16:56:13;5.00;;;2.97;;
8317;SDS011;4196;48.926;8.964;2023-03-16T17:02:11;3.20;;;2.67;;
8317;SDS011;4196;48.926;8.964;2023-03-16T17:05:18;8.03;;;4.00;;
8317;SDS011;4196;48.926;8.964;2023-03-16T17:08:07;8.40;;;4.00;;
8317;SDS011;4196;48.926;8.964;2023-03-16T17:10:56;8.67;;;2.70;;
8317;SDS011;4196;48.926;8.964;2023-03-16T17:13:43;5.83;;;3.53;;
8317;SDS011;4196;48.926;8.964;2023-03-16T17:16:33;4.60;;;2.70;;
8317;SDS011;4196;48.926;8.964;2023-03-16T17:19:23;4.77;;;2.83;;
8317;SDS011;4196;48.926;8.964;2023-03-16T17:22:19;4.23;;;2.90;;
8317;SDS011;4196;48.926;8.964;2023-03-16T17:25:07;5.30;;;3.17;;
8317;SDS011;4196;48.926;8.964;2023-03-16T17:27:55;4.90;;;3.17;;
8317;SDS011;4196;48.926;8.964;2023-03-16T17:30:43;6.47;;;3.00;;
8317;SDS011;4196;48.926;8.964;2023-03-16T17:33:32;3.47;;;2.80;;
8317;SDS011;4196;48.926;8.964;2023-03-16T17:36:19;3.50;;;2.80;;
8317;SDS011;4196;48.926;8.964;2023-03-16T17:39:17;7.67;;;3.60;;
8317;SDS011;4196;48.926;8.964;2023-03-16T17:42:12;3.67;;;2.40;;
8317;SDS011;4196;48.926;8.964;2023-03-16T17:45:04;3.13;;;2.47;;
8317;SDS011;4196;48.926;8.964;2023-03-16T17:47:59;4.23;;;3.17;;
8317;SDS011;4196;48.926;8.964;2023-03-16T17:50:46;4.90;;;3.00;;
8317;SDS011;4196;48.926;8.964;2023-03-16T17:53:34;3.37;;;2.27;;
8317;SDS011;4196;48.926;8.964;2023-03-16T17:56:21;6.50;;;3.03;;
8317;SDS011;4196;48.926;8.964;2023-03-16T17:59:14;5.07;;;2.90;;
8317;SDS011;4196;48.926;8.964;2023-03-16T18:02:08;3.40;;;2.53;;
8317;SDS011;4196;48.926;8.964;2023-03-16T18:05:30;3.97;;;2.67;;
8317;SDS011;4196;48.926;8.964;2023-03-16T18:08:22;3.27;;;2.53;;
8317;SDS011;4196;48.926;8.964;2023-03-16T18:11:13;4.80;;;3.00;;
8317;SDS011;4196;48.926;8.964;2023-03-16T18:14:06;5.30;;;3.23;;
8317;SDS011;4196;48.926;8.964;2023-03-16T18:20:20;6.23;;;2.50;;
8317;SDS011;4196;48.926;8.964;2023-03-16T18:23:13;3.57;;;2.90;;
8317;SDS011;4196;48.926;8.964;2023-03-16T18:26:02;4.40;;;3.07;;